sensor_id;sensor_type;location;lat;lon;timestamp;P1;durP1;ratioP1;P2;durP2;ratioP2
317;SDS011;146;53.448;10.228;2023-05-10T00:00:02;4.60;;;4.20;;
317;SDS011;146;53.448;10.228;2023-05-10T00:02:29;4.27;;;3.97;;
317;SDS011;146;53.448;10.228;2023-05-10T00:04:56;4.33;;;4.00;;
317;SDS011;146;53.448;10.228;2023-05-10T00:07:24;4.80;;;4.40;;
317;SDS011;146;53.448;10.228;2023-05-10T00:09:54;4.87;;;4.47;;
317;SDS011;146;53.448;10.228;2023-05-10T00:12:21;4.63;;;4.30;;
317;SDS011;146;53.448;10.228;2023-05-10T00:14:47;5.67;;;4.10;;
317;SDS011;146;53.448;10.228;2023-05-10T00:17:14;5.00;;;4.60;;
317;SDS011;146;53.448;10.228;2023-05-10T00:19:47;4.87;;;4.43;;
317;SDS011;146;53.448;10.228;2023-05-10T00:22:14;4.40;;;4.10;;
317;SDS011;146;53.448;10.228;2023-05-10T00:24:42;5.83;;;4.47;;
317;SDS011;146;53.448;10.228;2023-05-10T00:27:08;4.57;;;4.17;;
317;SDS011;146;53.448;10.228;2023-05-10T00:29:43;4.87;;;4.50;;
317;SDS011;146;53.448;10.228;2023-05-10T00:32:10;4.67;;;4.37;;
317;SDS011;146;53.448;10.228;2023-05-10T00:34:42;4.90;;;4.57;;
317;SDS011;146;53.448;10.228;2023-05-10T00:37:09;5.10;;;4.60;;
317;SDS011;146;53.448;10.228;2023-05-10T00:39:39;6.27;;;4.80;;
317;SDS011;146;53.448;10.228;2023-05-10T00:42:10;5.43;;;5.03;;
317;SDS011;146;53.448;10.228;2023-05-10T00:44:37;5.27;;;4.80;;
317;SDS011;146;53.448;10.228;2023-05-10T00:47:03;8.20;;;5.97;;
317;SDS011;146;53.448;10.228;2023-05-10T00:49:30;4.80;;;4.43;;
317;SDS011;146;53.448;10.228;2023-05-10T00:52:06;6.90;;;4.17;;
317;SDS011;146;53.448;10.228;2023-05-10T00:54:33;5.10;;;4.70;;
317;SDS011;146;53.448;10.228;2023-05-10T00:57:06;8.07;;;4.27;;
317;SDS011;146;53.448;10.228;2023-05-10T00:59:39;4.90;;;4.50;;
317;SDS011;146;53.448;10.228;2023-05-10T01:02:06;5.00;;;4.60;;
317;SDS011;146;53.448;10.228;2023-05-10T01:04:39;4.87;;;4.37;;
317;SDS011;146;53.448;10.228;2023-05-10T01:07:06;5.80;;;4.67;;
317;SDS011;146;53.448;10.228;2023-05-10T01:09:36;11.90;;;6.43;;
317;SDS011;146;53.448;10.228;2023-05-10T01:12:08;4.37;;;3.80;;
317;SDS011;146;53.448;10.228;2023-05-10T01:14:36;4.27;;;3.97;;
317;SDS011;146;53.448;10.228;2023-05-10T01:17:06;4.60;;;4.20;;
317;SDS011;146;53.448;10.228;2023-05-10T01:19:36;4.87;;;4.47;;
317;SDS011;146;53.448;10.228;2023-05-10T01:22:05;5.77;;;5.17;;
317;SDS011;146;53.448;10.228;2023-05-10T01:25:10;5.30;;;4.60;;
317;SDS011;146;53.448;10.228;2023-05-10T01:27:53;5.30;;;4.90;;
317;SDS011;146;53.448;10.228;2023-05-10T01:31:02;4.80;;;4.50;;
317;SDS011;146;53.448;10.228;2023-05-10T01:33:44;5.33;;;4.93;;
317;SDS011;146;53.448;10.228;2023-05-10T01:36:19;4.47;;;4.17;;
317;SDS011;146;53.448;10.228;2023-05-10T01:38:57;5.30;;;4.90;;
317;SDS011;146;53.448;10.228;2023-05-10T01:41:32;6.27;;;4.80;;
317;SDS011;146;53.448;10.228;2023-05-10T01:44:09;5.23;;;4.83;;
317;SDS011;146;53.448;10.228;2023-05-10T01:46:41;5.53;;;5.13;;
317;SDS011;146;53.448;10.228;2023-05-10T01:49:11;5.23;;;4.87;;
317;SDS011;146;53.448;10.228;2023-05-10T01:51:44;4.83;;;4.47;;
317;SDS011;146;53.448;10.228;2023-05-10T01:54:13;4.77;;;4.37;;
317;SDS011;146;53.448;10.228;2023-05-10T01:56:41;4.80;;;4.40;;
317;SDS011;146;53.448;10.228;2023-05-10T01:59:11;5.00;;;4.60;;
317;SDS011;146;53.448;10.228;2023-05-10T02:01:44;5.13;;;4.73;;
317;SDS011;146;53.448;10.228;2023-05-10T02:04:14;5.07;;;4.57;;
317;SDS011;146;53.448;10.228;2023-05-10T02:06:43;5.03;;;4.60;;
317;SDS011;146;53.448;10.228;2023-05-10T02:09:12;5.37;;;4.87;;
317;SDS011;146;53.448;10.228;2023-05-10T02:11:41;5.57;;;5.17;;
317;SDS011;146;53.448;10.228;2023-05-10T02:14:09;5.73;;;5.33;;
317;SDS011;146;53.448;10.228;2023-05-10T02:16:38;6.93;;;5.20;;
317;SDS011;146;53.448;10.228;2023-05-10T02:19:05;5.20;;;4.80;;
317;SDS011;146;53.448;10.228;2023-05-10T02:21:42;5.60;;;5.10;;
317;SDS011;146;53.448;10.228;2023-05-10T02:24:10;5.83;;;5.33;;
317;SDS011;146;53.448;10.228;2023-05-10T02:26:38;5.30;;;4.90;;
317;SDS011;146;53.448;10.228;2023-05-10T02:29:05;5.10;;;4.80;;
317;SDS011;146;53.448;10.228;2023-05-10T02:31:37;5.47;;;5.07;;
317;SDS011;146;53.448;10.228;2023-05-10T02:34:05;5.07;;;4.73;;
317;SDS011;146;53.448;10.228;2023-05-10T02:36:33;6.30;;;5.70;;
317;SDS011;146;53.448;10.228;2023-05-10T02:39:02;6.00;;;5.50;;
317;SDS011;146;53.448;10.228;2023-05-10T02:41:30;5.60;;;5.10;;
317;SDS011;146;53.448;10.228;2023-05-10T02:44:05;5.23;;;4.70;;
317;SDS011;146;53.448;10.228;2023-05-10T02:46:34;5.37;;;4.87;;
317;SDS011;146;53.448;10.228;2023-05-10T02:49:02;4.73;;;4.30;;
317;SDS011;146;53.448;10.228;2023-05-10T02:51:30;5.20;;;4.80;;
317;SDS011;146;53.448;10.228;2023-05-10T02:54:04;4.90;;;4.50;;
317;SDS011;146;53.448;10.228;2023-05-10T02:56:38;5.03;;;4.60;;
317;SDS011;146;53.448;10.228;2023-05-10T02:59:08;6.10;;;4.83;;
317;SDS011;146;53.448;10.228;2023-05-10T03:01:36;5.23;;;4.73;;
317;SDS011;146;53.448;10.228;2023-05-10T03:04:03;5.33;;;4.80;;
317;SDS011;146;53.448;10.228;2023-05-10T03:06:30;4.93;;;4.60;;
317;SDS011;146;53.448;10.228;2023-05-10T03:09:00;5.30;;;4.90;;
317;SDS011;146;53.448;10.228;2023-05-10T03:11:32;5.50;;;5.00;;
317;SDS011;146;53.448;10.228;2023-05-10T03:14:13;4.60;;;4.30;;
317;SDS011;146;53.448;10.228;2023-05-10T03:16:58;5.00;;;4.60;;
317;SDS011;146;53.448;10.228;2023-05-10T03:19:34;4.77;;;4.47;;
317;SDS011;146;53.448;10.228;2023-05-10T03:22:10;5.00;;;4.60;;
317;SDS011;146;53.448;10.228;2023-05-10T03:24:43;5.30;;;4.90;;
317;SDS011;146;53.448;10.228;2023-05-10T03:27:11;5.70;;;5.20;;
317;SDS011;146;53.448;10.228;2023-05-10T03:29:40;6.10;;;5.43;;
317;SDS011;146;53.448;10.228;2023-05-10T03:32:08;5.77;;;5.27;;
317;SDS011;146;53.448;10.228;2023-05-10T03:34:35;5.13;;;4.63;;
317;SDS011;146;53.448;10.228;2023-05-10T03:37:08;5.23;;;4.77;;
317;SDS011;146;53.448;10.228;2023-05-10T03:39:40;5.20;;;4.80;;
317;SDS011;146;53.448;10.228;2023-05-10T03:42:08;5.03;;;4.60;;
317;SDS011;146;53.448;10.228;2023-05-10T03:44:50;6.00;;;5.40;;
317;SDS011;146;53.448;10.228;2023-05-10T03:47:22;6.03;;;5.53;;
317;SDS011;146;53.448;10.228;2023-05-10T03:49:50;6.60;;;5.10;;
317;SDS011;146;53.448;10.228;2023-05-10T03:52:19;5.70;;;5.30;;
317;SDS011;146;53.448;10.228;2023-05-10T03:54:53;5.60;;;5.10;;
317;SDS011;146;53.448;10.228;2023-05-10T03:57:24;5.37;;;4.90;;
317;SDS011;146;53.448;10.228;2023-05-10T03:59:51;5.57;;;4.97;;
317;SDS011;146;53.448;10.228;2023-05-10T04:02:18;8.33;;;5.90;;
317;SDS011;146;53.448;10.228;2023-05-10T04:04:45;4.87;;;4.43;;
317;SDS011;146;53.448;10.228;2023-05-10T04:07:18;5.27;;;4.87;;
317;SDS011;146;53.448;10.228;2023-05-10T04:09:44;5.17;;;4.77;;
317;SDS011;146;53.448;10.228;2023-05-10T04:12:11;6.20;;;5.07;;
317;SDS011;146;53.448;10.228;2023-05-10T04:14:39;5.47;;;5.07;;
317;SDS011;146;53.448;10.228;2023-05-10T04:17:06;4.70;;;4.40;;
317;SDS011;146;53.448;10.228;2023-05-10T04:19:38;6.40;;;5.03;;
317;SDS011;146;53.448;10.228;2023-05-10T04:22:05;4.90;;;4.57;;
317;SDS011;146;53.448;10.228;2023-05-10T04:24:32;5.30;;;4.90;;
317;SDS011;146;53.448;10.228;2023-05-10T04:27:06;5.70;;;5.30;;
317;SDS011;146;53.448;10.228;2023-05-10T04:29:33;6.03;;;5.53;;
317;SDS011;146;53.448;10.228;2023-05-10T04:32:01;5.70;;;5.30;;
317;SDS011;146;53.448;10.228;2023-05-10T04:34:28;5.30;;;4.90;;
317;SDS011;146;53.448;10.228;2023-05-10T04:36:55;4.63;;;4.33;;
317;SDS011;146;53.448;10.228;2023-05-10T04:39:22;6.23;;;5.60;;
317;SDS011;146;53.448;10.228;2023-05-10T04:41:54;6.40;;;5.30;;
317;SDS011;146;53.448;10.228;2023-05-10T04:44:23;5.63;;;5.27;;
317;SDS011;146;53.448;10.228;2023-05-10T04:46:50;5.27;;;4.87;;
317;SDS011;146;53.448;10.228;2023-05-10T04:49:21;4.87;;;4.37;;
317;SDS011;146;53.448;10.228;2023-05-10T04:51:48;5.90;;;5.20;;
317;SDS011;146;53.448;10.228;2023-05-10T04:54:15;6.20;;;5.60;;
317;SDS011;146;53.448;10.228;2023-05-10T04:56:42;5.80;;;5.30;;
317;SDS011;146;53.448;10.228;2023-05-10T04:59:09;4.73;;;4.43;;
317;SDS011;146;53.448;10.228;2023-05-10T05:01:35;5.80;;;5.40;;
317;SDS011;146;53.448;10.228;2023-05-10T05:04:02;4.93;;;4.53;;
317;SDS011;146;53.448;10.228;2023-05-10T05:06:31;5.83;;;5.33;;
317;SDS011;146;53.448;10.228;2023-05-10T05:09:04;7.30;;;5.67;;
317;SDS011;146;53.448;10.228;2023-05-10T05:11:33;6.00;;;5.37;;
317;SDS011;146;53.448;10.228;2023-05-10T05:17:41;5.93;;;5.00;;
317;SDS011;146;53.448;10.228;2023-05-10T05:20:10;5.87;;;5.20;;
317;SDS011;146;53.448;10.228;2023-05-10T05:22:39;5.47;;;5.03;;
317;SDS011;146;53.448;10.228;2023-05-10T05:25:06;5.37;;;4.90;;
317;SDS011;146;53.448;10.228;2023-05-10T05:27:33;6.10;;;5.70;;
317;SDS011;146;53.448;10.228;2023-05-10T05:30:00;5.83;;;5.43;;
317;SDS011;146;53.448;10.228;2023-05-10T05:32:27;6.73;;;5.40;;
317;SDS011;146;53.448;10.228;2023-05-10T05:34:54;4.80;;;4.50;;
317;SDS011;146;53.448;10.228;2023-05-10T05:37:20;5.40;;;4.90;;
317;SDS011;146;53.448;10.228;2023-05-10T05:39:52;5.70;;;5.20;;
317;SDS011;146;53.448;10.228;2023-05-10T05:42:19;5.20;;;4.80;;
317;SDS011;146;53.448;10.228;2023-05-10T05:44:46;6.40;;;5.90;;
317;SDS011;146;53.448;10.228;2023-05-10T05:47:25;6.80;;;6.10;;
317;SDS011;146;53.448;10.228;2023-05-10T05:49:52;5.80;;;5.03;;
317;SDS011;146;53.448;10.228;2023-05-10T05:52:22;4.87;;;4.47;;
317;SDS011;146;53.448;10.228;2023-05-10T05:54:49;4.40;;;4.10;;
317;SDS011;146;53.448;10.228;2023-05-10T05:57:17;5.90;;;5.40;;
317;SDS011;146;53.448;10.228;2023-05-10T05:59:47;5.00;;;4.60;;
317;SDS011;146;53.448;10.228;2023-05-10T06:02:19;5.00;;;4.60;;
317;SDS011;146;53.448;10.228;2023-05-10T06:04:49;5.93;;;5.17;;
317;SDS011;146;53.448;10.228;2023-05-10T06:07:18;5.70;;;5.20;;
317;SDS011;146;53.448;10.228;2023-05-10T06:09:45;6.10;;;5.50;;
317;SDS011;146;53.448;10.228;2023-05-10T06:12:13;4.90;;;4.50;;
317;SDS011;146;53.448;10.228;2023-05-10T06:14:41;5.80;;;5.40;;
317;SDS011;146;53.448;10.228;2023-05-10T06:17:08;5.70;;;5.20;;
317;SDS011;146;53.448;10.228;2023-05-10T06:19:35;5.37;;;4.87;;
317;SDS011;146;53.448;10.228;2023-05-10T06:22:02;5.30;;;4.90;;
317;SDS011;146;53.448;10.228;2023-05-10T06:24:31;5.80;;;5.30;;
317;SDS011;146;53.448;10.228;2023-05-10T06:27:06;5.87;;;5.37;;
317;SDS011;146;53.448;10.228;2023-05-10T06:29:33;6.33;;;4.87;;
317;SDS011;146;53.448;10.228;2023-05-10T06:32:04;5.30;;;4.90;;
317;SDS011;146;53.448;10.228;2023-05-10T06:34:31;6.40;;;5.80;;
317;SDS011;146;53.448;10.228;2023-05-10T06:37:04;6.07;;;5.63;;
317;SDS011;146;53.448;10.228;2023-05-10T06:39:30;6.27;;;5.37;;
317;SDS011;146;53.448;10.228;2023-05-10T06:41:59;5.40;;;4.97;;
317;SDS011;146;53.448;10.228;2023-05-10T06:44:27;5.47;;;4.97;;
317;SDS011;146;53.448;10.228;2023-05-10T06:46:54;5.47;;;5.00;;
317;SDS011;146;53.448;10.228;2023-05-10T06:49:22;5.43;;;4.90;;
317;SDS011;146;53.448;10.228;2023-05-10T06:51:49;5.70;;;5.20;;
317;SDS011;146;53.448;10.228;2023-05-10T06:54:16;5.00;;;4.60;;
317;SDS011;146;53.448;10.228;2023-05-10T06:56:46;5.97;;;5.23;;
317;SDS011;146;53.448;10.228;2023-05-10T06:59:12;4.77;;;4.40;;
317;SDS011;146;53.448;10.228;2023-05-10T07:01:40;5.73;;;5.23;;
317;SDS011;146;53.448;10.228;2023-05-10T07:04:06;5.30;;;4.80;;
317;SDS011;146;53.448;10.228;2023-05-10T07:06:35;6.67;;;4.23;;
317;SDS011;146;53.448;10.228;2023-05-10T07:09:01;5.00;;;4.57;;
317;SDS011;146;53.448;10.228;2023-05-10T07:11:31;4.70;;;4.30;;
317;SDS011;146;53.448;10.228;2023-05-10T07:13:58;4.93;;;4.53;;
317;SDS011;146;53.448;10.228;2023-05-10T07:16:39;4.80;;;4.40;;
317;SDS011;146;53.448;10.228;2023-05-10T07:19:06;6.13;;;4.20;;
317;SDS011;146;53.448;10.228;2023-05-10T07:21:35;5.20;;;4.80;;
317;SDS011;146;53.448;10.228;2023-05-10T07:24:02;5.97;;;5.37;;
317;SDS011;146;53.448;10.228;2023-05-10T07:26:29;5.33;;;4.90;;
317;SDS011;146;53.448;10.228;2023-05-10T07:28:56;5.23;;;4.83;;
317;SDS011;146;53.448;10.228;2023-05-10T07:31:28;5.87;;;5.07;;
317;SDS011;146;53.448;10.228;2023-05-10T07:34:01;5.10;;;4.80;;
317;SDS011;146;53.448;10.228;2023-05-10T07:36:30;5.13;;;4.73;;
317;SDS011;146;53.448;10.228;2023-05-10T07:38:58;5.90;;;4.83;;
317;SDS011;146;53.448;10.228;2023-05-10T07:41:28;6.50;;;4.80;;
317;SDS011;146;53.448;10.228;2023-05-10T07:43:55;5.60;;;5.20;;
317;SDS011;146;53.448;10.228;2023-05-10T07:46:22;5.50;;;5.10;;
317;SDS011;146;53.448;10.228;2023-05-10T07:48:48;5.63;;;5.23;;
317;SDS011;146;53.448;10.228;2023-05-10T07:51:15;5.30;;;4.90;;
317;SDS011;146;53.448;10.228;2023-05-10T07:53:42;5.93;;;5.53;;
317;SDS011;146;53.448;10.228;2023-05-10T07:56:23;6.10;;;5.50;;
317;SDS011;146;53.448;10.228;2023-05-10T07:58:52;5.77;;;5.27;;
317;SDS011;146;53.448;10.228;2023-05-10T08:01:24;5.40;;;4.90;;
317;SDS011;146;53.448;10.228;2023-05-10T08:03:56;5.43;;;4.90;;
317;SDS011;146;53.448;10.228;2023-05-10T08:06:25;5.20;;;4.70;;
317;SDS011;146;53.448;10.228;2023-05-10T08:08:55;5.13;;;4.73;;
317;SDS011;146;53.448;10.228;2023-05-10T08:11:26;5.83;;;5.33;;
317;SDS011;146;53.448;10.228;2023-05-10T08:13:53;5.47;;;5.03;;
317;SDS011;146;53.448;10.228;2023-05-10T08:16:22;5.80;;;5.40;;
317;SDS011;146;53.448;10.228;2023-05-10T08:18:52;5.73;;;5.13;;
317;SDS011;146;53.448;10.228;2023-05-10T08:21:33;5.03;;;4.63;;
317;SDS011;146;53.448;10.228;2023-05-10T08:24:04;5.57;;;5.17;;
317;SDS011;146;53.448;10.228;2023-05-10T08:26:42;6.30;;;5.70;;
317;SDS011;146;53.448;10.228;2023-05-10T08:29:08;5.97;;;5.47;;
317;SDS011;146;53.448;10.228;2023-05-10T08:31:44;6.43;;;5.93;;
317;SDS011;146;53.448;10.228;2023-05-10T08:34:14;5.40;;;5.00;;
317;SDS011;146;53.448;10.228;2023-05-10T08:36:41;5.00;;;4.60;;
317;SDS011;146;53.448;10.228;2023-05-10T08:39:11;5.23;;;4.83;;
317;SDS011;146;53.448;10.228;2023-05-10T08:41:39;6.83;;;4.70;;
317;SDS011;146;53.448;10.228;2023-05-10T08:44:10;5.60;;;5.10;;
317;SDS011;146;53.448;10.228;2023-05-10T08:46:41;6.17;;;5.57;;
317;SDS011;146;53.448;10.228;2023-05-10T08:49:13;4.87;;;4.50;;
317;SDS011;146;53.448;10.228;2023-05-10T08:51:43;5.73;;;5.20;;
317;SDS011;146;53.448;10.228;2023-05-10T08:54:25;5.70;;;5.30;;
317;SDS011;146;53.448;10.228;2023-05-10T08:56:58;5.07;;;4.77;;
317;SDS011;146;53.448;10.228;2023-05-10T08:59:35;5.97;;;5.47;;
317;SDS011;146;53.448;10.228;2023-05-10T09:02:04;5.33;;;4.93;;
317;SDS011;146;53.448;10.228;2023-05-10T09:04:32;6.60;;;5.00;;
317;SDS011;146;53.448;10.228;2023-05-10T09:07:06;5.70;;;5.30;;
317;SDS011;146;53.448;10.228;2023-05-10T09:09:36;6.70;;;5.97;;
317;SDS011;146;53.448;10.228;2023-05-10T09:12:09;5.80;;;5.30;;
317;SDS011;146;53.448;10.228;2023-05-10T09:14:38;6.30;;;5.70;;
317;SDS011;146;53.448;10.228;2023-05-10T09:17:05;5.90;;;5.50;;
317;SDS011;146;53.448;10.228;2023-05-10T09:19:32;5.57;;;5.13;;
317;SDS011;146;53.448;10.228;2023-05-10T09:22:02;5.93;;;5.47;;
317;SDS011;146;53.448;10.228;2023-05-10T09:24:29;5.70;;;5.20;;
317;SDS011;146;53.448;10.228;2023-05-10T09:26:56;6.60;;;6.10;;
317;SDS011;146;53.448;10.228;2023-05-10T09:29:23;6.57;;;6.07;;
317;SDS011;146;53.448;10.228;2023-05-10T09:31:52;5.60;;;5.20;;
317;SDS011;146;53.448;10.228;2023-05-10T09:34:21;5.93;;;5.53;;
317;SDS011;146;53.448;10.228;2023-05-10T09:36:55;5.97;;;5.57;;
317;SDS011;146;53.448;10.228;2023-05-10T09:39:32;5.83;;;5.40;;
317;SDS011;146;53.448;10.228;2023-05-10T09:42:02;6.17;;;5.67;;
317;SDS011;146;53.448;10.228;2023-05-10T09:44:33;5.20;;;4.80;;
317;SDS011;146;53.448;10.228;2023-05-10T09:47:02;6.23;;;5.73;;
317;SDS011;146;53.448;10.228;2023-05-10T09:49:32;6.67;;;5.70;;
317;SDS011;146;53.448;10.228;2023-05-10T09:52:07;6.73;;;6.13;;
317;SDS011;146;53.448;10.228;2023-05-10T09:54:34;7.23;;;6.53;;
317;SDS011;146;53.448;10.228;2023-05-10T09:57:01;6.30;;;5.80;;
317;SDS011;146;53.448;10.228;2023-05-10T09:59:28;6.00;;;5.50;;
317;SDS011;146;53.448;10.228;2023-05-10T10:01:56;6.50;;;6.00;;
317;SDS011;146;53.448;10.228;2023-05-10T10:04:25;5.90;;;5.50;;
317;SDS011;146;53.448;10.228;2023-05-10T10:06:58;6.67;;;6.17;;
317;SDS011;146;53.448;10.228;2023-05-10T10:09:33;8.00;;;7.33;;
317;SDS011;146;53.448;10.228;2023-05-10T10:12:00;6.90;;;6.20;;
317;SDS011;146;53.448;10.228;2023-05-10T10:14:28;6.70;;;6.20;;
317;SDS011;146;53.448;10.228;2023-05-10T10:16:56;7.20;;;6.43;;
317;SDS011;146;53.448;10.228;2023-05-10T10:19:24;7.57;;;6.90;;
317;SDS011;146;53.448;10.228;2023-05-10T10:21:52;7.50;;;6.90;;
317;SDS011;146;53.448;10.228;2023-05-10T10:24:19;7.73;;;7.07;;
317;SDS011;146;53.448;10.228;2023-05-10T10:26:46;8.27;;;7.33;;
317;SDS011;146;53.448;10.228;2023-05-10T10:29:21;8.10;;;7.30;;
317;SDS011;146;53.448;10.228;2023-05-10T10:31:54;7.90;;;7.20;;
317;SDS011;146;53.448;10.228;2023-05-10T10:34:29;7.60;;;6.90;;
317;SDS011;146;53.448;10.228;2023-05-10T10:36:57;9.30;;;7.03;;
317;SDS011;146;53.448;10.228;2023-05-10T10:39:29;9.87;;;8.97;;
317;SDS011;146;53.448;10.228;2023-05-10T10:42:01;8.90;;;8.20;;
317;SDS011;146;53.448;10.228;2023-05-10T10:44:37;10.33;;;9.47;;
317;SDS011;146;53.448;10.228;2023-05-10T10:47:07;9.80;;;9.00;;
317;SDS011;146;53.448;10.228;2023-05-10T10:49:51;8.17;;;7.47;;
317;SDS011;146;53.448;10.228;2023-05-10T10:52:33;8.27;;;7.67;;
317;SDS011;146;53.448;10.228;2023-05-10T10:55:01;9.57;;;8.63;;
317;SDS011;146;53.448;10.228;2023-05-10T10:57:35;8.40;;;7.70;;
317;SDS011;146;53.448;10.228;2023-05-10T11:00:19;9.30;;;8.40;;
317;SDS011;146;53.448;10.228;2023-05-10T11:02:51;10.37;;;9.50;;
317;SDS011;146;53.448;10.228;2023-05-10T11:05:36;9.27;;;8.47;;
317;SDS011;146;53.448;10.228;2023-05-10T11:08:11;10.40;;;9.43;;
317;SDS011;146;53.448;10.228;2023-05-10T11:10:51;10.60;;;9.73;;
317;SDS011;146;53.448;10.228;2023-05-10T11:13:26;10.10;;;9.23;;
317;SDS011;146;53.448;10.228;2023-05-10T11:15:55;10.23;;;9.40;;
317;SDS011;146;53.448;10.228;2023-05-10T11:18:27;10.47;;;9.57;;
317;SDS011;146;53.448;10.228;2023-05-10T11:20:57;10.77;;;9.77;;
317;SDS011;146;53.448;10.228;2023-05-10T11:23:30;10.03;;;9.17;;
317;SDS011;146;53.448;10.228;2023-05-10T11:25:59;9.67;;;8.87;;
317;SDS011;146;53.448;10.228;2023-05-10T11:28:30;9.90;;;9.00;;
317;SDS011;146;53.448;10.228;2023-05-10T11:31:00;9.40;;;8.70;;
317;SDS011;146;53.448;10.228;2023-05-10T11:33:27;10.90;;;9.97;;
317;SDS011;146;53.448;10.228;2023-05-10T11:35:54;9.43;;;8.53;;
317;SDS011;146;53.448;10.228;2023-05-10T11:38:23;10.50;;;9.60;;
317;SDS011;146;53.448;10.228;2023-05-10T11:40:53;9.63;;;8.83;;
317;SDS011;146;53.448;10.228;2023-05-10T11:43:20;11.03;;;9.83;;
317;SDS011;146;53.448;10.228;2023-05-10T11:45:53;10.23;;;9.43;;
317;SDS011;146;53.448;10.228;2023-05-10T11:48:24;11.20;;;10.20;;
317;SDS011;146;53.448;10.228;2023-05-10T11:50:53;11.60;;;10.50;;
317;SDS011;146;53.448;10.228;2023-05-10T11:53:24;10.97;;;10.07;;
317;SDS011;146;53.448;10.228;2023-05-10T11:55:55;11.77;;;10.83;;
317;SDS011;146;53.448;10.228;2023-05-10T11:58:32;10.40;;;9.60;;
317;SDS011;146;53.448;10.228;2023-05-10T12:00:59;10.97;;;10.10;;
317;SDS011;146;53.448;10.228;2023-05-10T12:03:26;11.13;;;10.20;;
317;SDS011;146;53.448;10.228;2023-05-10T12:05:56;10.90;;;9.97;;
317;SDS011;146;53.448;10.228;2023-05-10T12:08:28;12.10;;;11.10;;
317;SDS011;146;53.448;10.228;2023-05-10T12:11:03;11.73;;;10.83;;
317;SDS011;146;53.448;10.228;2023-05-10T12:13:37;11.37;;;10.47;;
317;SDS011;146;53.448;10.228;2023-05-10T12:16:20;13.20;;;12.00;;
317;SDS011;146;53.448;10.228;2023-05-10T12:18:48;13.60;;;12.40;;
317;SDS011;146;53.448;10.228;2023-05-10T12:21:16;12.73;;;11.50;;
317;SDS011;146;53.448;10.228;2023-05-10T12:23:49;12.43;;;11.33;;
317;SDS011;146;53.448;10.228;2023-05-10T12:26:21;11.87;;;10.87;;
317;SDS011;146;53.448;10.228;2023-05-10T12:28:49;11.23;;;10.30;;
317;SDS011;146;53.448;10.228;2023-05-10T12:31:16;12.70;;;11.60;;
317;SDS011;146;53.448;10.228;2023-05-10T12:33:49;11.43;;;10.43;;
317;SDS011;146;53.448;10.228;2023-05-10T12:36:24;11.43;;;10.53;;
317;SDS011;146;53.448;10.228;2023-05-10T12:38:59;11.40;;;10.40;;
317;SDS011;146;53.448;10.228;2023-05-10T12:41:29;11.17;;;10.17;;
317;SDS011;146;53.448;10.228;2023-05-10T12:43:59;9.03;;;8.33;;
317;SDS011;146;53.448;10.228;2023-05-10T12:46:25;8.50;;;7.80;;
317;SDS011;146;53.448;10.228;2023-05-10T12:49:06;9.23;;;8.43;;
317;SDS011;146;53.448;10.228;2023-05-10T12:51:32;10.77;;;9.53;;
317;SDS011;146;53.448;10.228;2023-05-10T12:54:03;10.20;;;9.30;;
317;SDS011;146;53.448;10.228;2023-05-10T12:56:33;9.53;;;8.63;;
317;SDS011;146;53.448;10.228;2023-05-10T12:59:05;8.40;;;7.73;;
317;SDS011;146;53.448;10.228;2023-05-10T13:01:34;9.50;;;8.70;;
317;SDS011;146;53.448;10.228;2023-05-10T13:04:01;8.27;;;7.50;;
317;SDS011;146;53.448;10.228;2023-05-10T13:06:33;7.70;;;7.10;;
317;SDS011;146;53.448;10.228;2023-05-10T13:09:00;7.00;;;6.50;;
317;SDS011;146;53.448;10.228;2023-05-10T13:11:39;8.27;;;7.57;;
317;SDS011;146;53.448;10.228;2023-05-10T13:14:06;8.80;;;8.00;;
317;SDS011;146;53.448;10.228;2023-05-10T13:16:33;9.23;;;8.47;;
317;SDS011;146;53.448;10.228;2023-05-10T13:19:00;8.13;;;7.50;;
317;SDS011;146;53.448;10.228;2023-05-10T13:21:26;8.93;;;8.10;;
317;SDS011;146;53.448;10.228;2023-05-10T13:23:54;8.60;;;8.00;;
317;SDS011;146;53.448;10.228;2023-05-10T13:26:23;9.47;;;8.67;;
317;SDS011;146;53.448;10.228;2023-05-10T13:28:54;8.50;;;7.80;;
317;SDS011;146;53.448;10.228;2023-05-10T13:31:24;8.37;;;7.60;;
317;SDS011;146;53.448;10.228;2023-05-10T13:34:00;7.13;;;6.53;;
317;SDS011;146;53.448;10.228;2023-05-10T13:36:31;6.53;;;6.03;;
317;SDS011;146;53.448;10.228;2023-05-10T13:38:58;8.03;;;7.33;;
317;SDS011;146;53.448;10.228;2023-05-10T13:41:32;9.17;;;8.37;;
317;SDS011;146;53.448;10.228;2023-05-10T13:44:00;9.17;;;8.27;;
317;SDS011;146;53.448;10.228;2023-05-10T13:46:28;8.40;;;7.80;;
317;SDS011;146;53.448;10.228;2023-05-10T13:48:55;8.20;;;7.50;;
317;SDS011;146;53.448;10.228;2023-05-10T13:51:22;8.70;;;8.10;;
317;SDS011;146;53.448;10.228;2023-05-10T13:53:49;7.70;;;7.10;;
317;SDS011;146;53.448;10.228;2023-05-10T13:56:23;7.77;;;7.17;;
317;SDS011;146;53.448;10.228;2023-05-10T13:58:53;8.13;;;7.43;;
317;SDS011;146;53.448;10.228;2023-05-10T14:01:21;8.20;;;7.50;;
317;SDS011;146;53.448;10.228;2023-05-10T14:03:50;8.30;;;7.63;;
317;SDS011;146;53.448;10.228;2023-05-10T14:06:20;9.20;;;8.30;;
317;SDS011;146;53.448;10.228;2023-05-10T14:08:50;9.23;;;8.43;;
317;SDS011;146;53.448;10.228;2023-05-10T14:11:20;8.27;;;7.60;;
317;SDS011;146;53.448;10.228;2023-05-10T14:13:49;8.13;;;7.43;;
317;SDS011;146;53.448;10.228;2023-05-10T14:16:18;7.60;;;7.00;;
317;SDS011;146;53.448;10.228;2023-05-10T14:18:49;8.60;;;7.90;;
317;SDS011;146;53.448;10.228;2023-05-10T14:21:18;9.60;;;8.80;;
317;SDS011;146;53.448;10.228;2023-05-10T14:23:45;8.70;;;8.00;;
317;SDS011;146;53.448;10.228;2023-05-10T14:26:14;8.83;;;8.13;;
317;SDS011;146;53.448;10.228;2023-05-10T14:28:49;7.67;;;6.97;;
317;SDS011;146;53.448;10.228;2023-05-10T14:31:16;8.43;;;7.70;;
317;SDS011;146;53.448;10.228;2023-05-10T14:33:50;8.80;;;8.10;;
317;SDS011;146;53.448;10.228;2023-05-10T14:36:17;8.00;;;7.30;;
317;SDS011;146;53.448;10.228;2023-05-10T14:38:44;8.70;;;8.00;;
317;SDS011;146;53.448;10.228;2023-05-10T14:41:11;7.80;;;7.20;;
317;SDS011;146;53.448;10.228;2023-05-10T14:43:40;9.27;;;8.37;;
317;SDS011;146;53.448;10.228;2023-05-10T14:46:09;7.57;;;6.93;;
317;SDS011;146;53.448;10.228;2023-05-10T14:48:46;7.30;;;6.70;;
317;SDS011;146;53.448;10.228;2023-05-10T14:51:13;6.87;;;6.37;;
317;SDS011;146;53.448;10.228;2023-05-10T14:53:40;7.00;;;6.40;;
317;SDS011;146;53.448;10.228;2023-05-10T14:56:09;7.10;;;6.60;;
317;SDS011;146;53.448;10.228;2023-05-10T14:58:39;6.77;;;6.27;;
317;SDS011;146;53.448;10.228;2023-05-10T15:01:09;6.20;;;5.70;;
317;SDS011;146;53.448;10.228;2023-05-10T15:03:39;6.90;;;6.40;;
317;SDS011;146;53.448;10.228;2023-05-10T15:06:07;6.87;;;6.30;;
317;SDS011;146;53.448;10.228;2023-05-10T15:08:34;6.90;;;6.40;;
317;SDS011;146;53.448;10.228;2023-05-10T15:11:01;7.33;;;6.73;;
317;SDS011;146;53.448;10.228;2023-05-10T15:13:32;7.17;;;6.67;;
317;SDS011;146;53.448;10.228;2023-05-10T15:16:02;5.80;;;5.40;;
317;SDS011;146;53.448;10.228;2023-05-10T15:18:34;6.27;;;5.77;;
317;SDS011;146;53.448;10.228;2023-05-10T15:21:01;6.70;;;6.10;;
317;SDS011;146;53.448;10.228;2023-05-10T15:23:29;6.87;;;6.37;;
317;SDS011;146;53.448;10.228;2023-05-10T15:26:00;6.60;;;6.00;;
317;SDS011;146;53.448;10.228;2023-05-10T15:28:27;5.93;;;5.43;;
317;SDS011;146;53.448;10.228;2023-05-10T15:30:57;5.40;;;5.00;;
317;SDS011;146;53.448;10.228;2023-05-10T15:33:25;4.93;;;4.60;;
317;SDS011;146;53.448;10.228;2023-05-10T15:35:52;4.87;;;4.57;;
317;SDS011;146;53.448;10.228;2023-05-10T15:38:21;6.00;;;5.53;;
317;SDS011;146;53.448;10.228;2023-05-10T15:40:50;5.90;;;5.50;;
317;SDS011;146;53.448;10.228;2023-05-10T15:43:22;5.60;;;5.20;;
317;SDS011;146;53.448;10.228;2023-05-10T15:45:49;5.07;;;4.77;;
317;SDS011;146;53.448;10.228;2023-05-10T15:48:15;6.27;;;5.83;;